sensor_id;sensor_type;location;lat;lon;timestamp;pressure;altitude;pressure_sealevel;temperature;humidity
11011;BME280;5558;42.702;23.178;2022-08-11T00:01:37;93895.84;;;17.08;100.00
11011;BME280;5558;42.702;23.178;2022-08-11T00:04:10;93895.44;;;17.15;100.00
11011;BME280;5558;42.702;23.178;2022-08-11T00:06:38;93898.63;;;17.17;100.00
11011;BME280;5558;42.702;23.178;2022-08-11T00:09:08;93892.69;;;17.06;100.00
11011;BME280;5558;42.702;23.178;2022-08-11T00:11:39;93902.72;;;17.15;100.00
11011;BME280;5558;42.702;23.178;2022-08-11T00:14:13;93884.44;;;17.17;100.00
11011;BME280;5558;42.702;23.178;2022-08-11T00:16:41;93892.97;;;17.19;100.00
11011;BME280;5558;42.702;23.178;2022-08-11T00:19:12;93899.53;;;17.26;100.00
11011;BME280;5558;42.702;23.178;2022-08-11T00:21:45;93895.13;;;17.30;100.00
11011;BME280;5558;42.702;23.178;2022-08-11T00:24:13;93885.34;;;17.26;100.00
11011;BME280;5558;42.702;23.178;2022-08-11T00:26:46;93887.22;;;17.25;100.00
11011;BME280;5558;42.702;23.178;2022-08-11T00:29:13;93879.03;;;17.22;100.00
11011;BME280;5558;42.702;23.178;2022-08-11T00:31:44;93894.47;;;17.25;100.00
11011;BME280;5558;42.702;23.178;2022-08-11T00:34:12;93885.94;;;17.23;100.00
11011;BME280;5558;42.702;23.178;2022-08-11T00:36:44;93886.34;;;17.30;100.00
11011;BME280;5558;42.702;23.178;2022-08-11T00:39:13;93878.31;;;17.30;100.00
11011;BME280;5558;42.702;23.178;2022-08-11T00:41:47;93879.78;;;17.36;100.00
11011;BME280;5558;42.702;23.178;2022-08-11T00:44:37;93878.91;;;17.40;100.00
11011;BME280;5558;42.702;23.178;2022-08-11T00:47:17;93881.84;;;17.39;100.00
11011;BME280;5558;42.702;23.178;2022-08-11T00:50:02;93885.22;;;17.44;100.00
11011;BME280;5558;42.702;23.178;2022-08-11T00:52:49;93883.56;;;17.35;100.00
11011;BME280;5558;42.702;23.178;2022-08-11T01:01:56;93884.53;;;17.39;100.00
11011;BME280;5558;42.702;23.178;2022-08-11T01:04:53;93874.13;;;17.37;100.00
11011;BME280;5558;42.702;23.178;2022-08-11T01:07:39;93876.59;;;17.34;100.00
11011;BME280;5558;42.702;23.178;2022-08-11T01:10:30;93877.22;;;17.31;100.00
11011;BME280;5558;42.702;23.178;2022-08-11T01:13:10;93876.72;;;17.29;100.00
11011;BME280;5558;42.702;23.178;2022-08-11T01:16:13;93880.59;;;17.23;100.00
11011;BME280;5558;42.702;23.178;2022-08-11T01:22:30;93871.06;;;17.17;100.00
11011;BME280;5558;42.702;23.178;2022-08-11T01:31:59;93863.88;;;17.03;100.00
11011;BME280;5558;42.702;23.178;2022-08-11T01:34:53;93862.91;;;16.99;100.00
11011;BME280;5558;42.702;23.178;2022-08-11T01:38:04;93869.13;;;16.95;100.00
11011;BME280;5558;42.702;23.178;2022-08-11T01:41:20;93870.03;;;16.90;100.00
11011;BME280;5558;42.702;23.178;2022-08-11T01:44:30;93862.41;;;16.84;100.00
11011;BME280;5558;42.702;23.178;2022-08-11T01:47:13;93857.94;;;16.79;100.00
11011;BME280;5558;42.702;23.178;2022-08-11T01:50:12;93859.53;;;16.67;100.00
11011;BME280;5558;42.702;23.178;2022-08-11T01:52:51;93867.34;;;16.63;100.00
11011;BME280;5558;42.702;23.178;2022-08-11T01:55:27;93866.44;;;16.68;100.00
11011;BME280;5558;42.702;23.178;2022-08-11T01:58:11;93860.59;;;16.66;100.00
11011;BME280;5558;42.702;23.178;2022-08-11T02:00:49;93861.91;;;16.68;100.00
11011;BME280;5558;42.702;23.178;2022-08-11T02:03:24;93860.81;;;16.69;100.00
11011;BME280;5558;42.702;23.178;2022-08-11T02:06:04;93868.16;;;16.64;100.00
11011;BME280;5558;42.702;23.178;2022-08-11T02:08:56;93863.88;;;16.63;100.00
11011;BME280;5558;42.702;23.178;2022-08-11T02:11:25;93862.31;;;16.62;100.00
11011;BME280;5558;42.702;23.178;2022-08-11T02:14:01;93852.50;;;16.57;100.00
11011;BME280;5558;42.702;23.178;2022-08-11T02:16:41;93857.34;;;16.55;100.00
11011;BME280;5558;42.702;23.178;2022-08-11T02:19:21;93869.91;;;16.55;100.00
11011;BME280;5558;42.702;23.178;2022-08-11T02:22:24;93844.53;;;16.39;100.00
11011;BME280;5558;42.702;23.178;2022-08-11T02:25:21;93860.13;;;16.50;100.00
11011;BME280;5558;42.702;23.178;2022-08-11T02:28:06;93861.25;;;16.44;100.00
11011;BME280;5558;42.702;23.178;2022-08-11T02:30:38;93874.53;;;16.49;100.00
11011;BME280;5558;42.702;23.178;2022-08-11T02:33:17;93861.84;;;16.41;100.00
11011;BME280;5558;42.702;23.178;2022-08-11T02:35:57;93863.41;;;16.42;100.00
11011;BME280;5558;42.702;23.178;2022-08-11T02:38:32;93873.53;;;16.45;100.00
11011;BME280;5558;42.702;23.178;2022-08-11T02:41:04;93868.69;;;16.47;100.00
11011;BME280;5558;42.702;23.178;2022-08-11T02:44:08;93863.66;;;16.46;100.00
11011;BME280;5558;42.702;23.178;2022-08-11T02:46:44;93865.47;;;16.50;100.00
11011;BME280;5558;42.702;23.178;2022-08-11T02:52:24;93858.22;;;16.51;100.00
11011;BME280;5558;42.702;23.178;2022-08-11T02:55:04;93857.75;;;16.49;100.00
11011;BME280;5558;42.702;23.178;2022-08-11T02:57:39;93860.69;;;16.47;100.00
11011;BME280;5558;42.702;23.178;2022-08-11T03:00:09;93854.94;;;16.40;100.00
11011;BME280;5558;42.702;23.178;2022-08-11T03:02:47;93858.75;;;16.34;100.00
11011;BME280;5558;42.702;23.178;2022-08-11T03:05:23;93858.84;;;16.29;100.00
11011;BME280;5558;42.702;23.178;2022-08-11T03:08:06;93860.34;;;16.22;100.00
11011;BME280;5558;42.702;23.178;2022-08-11T03:10:50;93822.69;;;15.91;100.00
11011;BME280;5558;42.702;23.178;2022-08-11T03:13:35;93870.22;;;16.21;100.00
11011;BME280;5558;42.702;23.178;2022-08-11T03:16:27;93878.25;;;16.21;100.00
11011;BME280;5558;42.702;23.178;2022-08-11T03:19:15;93865.19;;;16.20;100.00
11011;BME280;5558;42.702;23.178;2022-08-11T03:21:52;93873.19;;;16.20;100.00
11011;BME280;5558;42.702;23.178;2022-08-11T03:24:24;93865.94;;;16.20;100.00
11011;BME280;5558;42.702;23.178;2022-08-11T03:27:03;93858.44;;;16.22;100.00
11011;BME280;5558;42.702;23.178;2022-08-11T03:29:35;93865.94;;;16.20;100.00
11011;BME280;5558;42.702;23.178;2022-08-11T03:32:09;93855.22;;;16.25;100.00
11011;BME280;5558;42.702;23.178;2022-08-11T03:34:38;93857.88;;;16.25;100.00
11011;BME280;5558;42.702;23.178;2022-08-11T03:37:24;93855.78;;;16.22;100.00
11011;BME280;5558;42.702;23.178;2022-08-11T03:40:19;93854.09;;;16.26;100.00
11011;BME280;5558;42.702;23.178;2022-08-11T03:43:21;93858.34;;;16.27;100.00
11011;BME280;5558;42.702;23.178;2022-08-11T03:45:56;93843.50;;;16.21;100.00
11011;BME280;5558;42.702;23.178;2022-08-11T03:48:36;93867.13;;;16.46;100.00
11011;BME280;5558;42.702;23.178;2022-08-11T03:51:14;93859.63;;;16.62;100.00
11011;BME280;5558;42.702;23.178;2022-08-11T03:53:57;93863.78;;;16.81;100.00
11011;BME280;5558;42.702;23.178;2022-08-11T03:56:55;93859.81;;;17.06;100.00
11011;BME280;5558;42.702;23.178;2022-08-11T04:02:56;93859.59;;;17.16;100.00
11011;BME280;5558;42.702;23.178;2022-08-11T04:06:00;93849.97;;;17.15;100.00
11011;BME280;5558;42.702;23.178;2022-08-11T04:12:33;93851.97;;;17.72;100.00
11011;BME280;5558;42.702;23.178;2022-08-11T04:15:18;93847.06;;;18.18;100.00
11011;BME280;5558;42.702;23.178;2022-08-11T04:18:32;93850.94;;;18.96;100.00
11011;BME280;5558;42.702;23.178;2022-08-11T04:21:25;93846.50;;;19.56;100.00
11011;BME280;5558;42.702;23.178;2022-08-11T04:27:41;93848.53;;;20.82;100.00
11011;BME280;5558;42.702;23.178;2022-08-11T04:30:15;93845.00;;;21.28;96.21
11011;BME280;5558;42.702;23.178;2022-08-11T04:33:19;93852.59;;;21.84;90.80
11011;BME280;5558;42.702;23.178;2022-08-11T04:36:01;93855.81;;;22.31;86.92
11011;BME280;5558;42.702;23.178;2022-08-11T04:38:57;93850.03;;;22.85;83.42
11011;BME280;5558;42.702;23.178;2022-08-11T04:41:55;93850.97;;;23.38;80.25
11011;BME280;5558;42.702;23.178;2022-08-11T04:48:09;93846.91;;;24.20;74.77
11011;BME280;5558;42.702;23.178;2022-08-11T04:51:24;93855.38;;;24.89;69.98
11011;BME280;5558;42.702;23.178;2022-08-11T04:54:23;93847.78;;;25.41;67.70
11011;BME280;5558;42.702;23.178;2022-08-11T04:57:19;93853.97;;;25.92;63.08
11011;BME280;5558;42.702;23.178;2022-08-11T05:00:09;93856.19;;;26.40;58.31
11011;BME280;5558;42.702;23.178;2022-08-11T05:03:29;93856.22;;;26.82;55.41
11011;BME280;5558;42.702;23.178;2022-08-11T05:09:20;93850.47;;;27.81;52.03
11011;BME280;5558;42.702;23.178;2022-08-11T05:12:04;93848.25;;;28.45;49.99
11011;BME280;5558;42.702;23.178;2022-08-11T05:14:35;93855.97;;;28.69;49.10
11011;BME280;5558;42.702;23.178;2022-08-11T05:17:33;93857.44;;;29.00;47.81
11011;BME280;5558;42.702;23.178;2022-08-11T05:20:20;93857.81;;;28.99;47.85
11011;BME280;5558;42.702;23.178;2022-08-11T05:23:08;93846.09;;;28.58;47.49
11011;BME280;5558;42.702;23.178;2022-08-11T05:25:57;93853.16;;;28.03;49.27
11011;BME280;5558;42.702;23.178;2022-08-11T05:28:48;93867.91;;;28.58;48.02
11011;BME280;5558;42.702;23.178;2022-08-11T05:31:36;93851.63;;;28.65;47.88
11011;BME280;5558;42.702;23.178;2022-08-11T05:34:24;93857.88;;;28.69;47.03
11011;BME280;5558;42.702;23.178;2022-08-11T05:37:13;93859.44;;;27.32;50.46
11011;BME280;5558;42.702;23.178;2022-08-11T05:39:45;93860.31;;;27.63;50.34
11011;BME280;5558;42.702;23.178;2022-08-11T05:42:36;93854.75;;;28.67;48.62
11011;BME280;5558;42.702;23.178;2022-08-11T05:45:22;93854.22;;;29.71;46.58
11011;BME280;5558;42.702;23.178;2022-08-11T05:48:07;93857.50;;;29.95;45.39
11011;BME280;5558;42.702;23.178;2022-08-11T05:50:53;93858.09;;;28.53;48.19
11011;BME280;5558;42.702;23.178;2022-08-11T05:53:51;93859.31;;;28.93;48.17
11011;BME280;5558;42.702;23.178;2022-08-11T05:56:41;93861.06;;;28.45;48.44
11011;BME280;5558;42.702;23.178;2022-08-11T05:59:13;93858.13;;;29.27;48.06
11011;BME280;5558;42.702;23.178;2022-08-11T06:01:42;93862.94;;;30.70;45.32
11011;BME280;5558;42.702;23.178;2022-08-11T06:04:16;93868.66;;;31.47;42.96
11011;BME280;5558;42.702;23.178;2022-08-11T06:06:52;93861.19;;;31.97;41.27
11011;BME280;5558;42.702;23.178;2022-08-11T06:09:23;93859.41;;;32.77;40.02
11011;BME280;5558;42.702;23.178;2022-08-11T06:11:51;93863.59;;;33.68;38.17
11011;BME280;5558;42.702;23.178;2022-08-11T06:14:21;93856.59;;;34.78;36.18
11011;BME280;5558;42.702;23.178;2022-08-11T06:16:49;93878.13;;;34.87;35.67
11011;BME280;5558;42.702;23.178;2022-08-11T06:19:20;93859.91;;;33.85;36.41
11011;BME280;5558;42.702;23.178;2022-08-11T06:21:49;93851.44;;;34.13;36.05
11011;BME280;5558;42.702;23.178;2022-08-11T06:24:17;93853.09;;;34.74;35.13
11011;BME280;5558;42.702;23.178;2022-08-11T06:26:49;93845.72;;;33.90;35.77
11011;BME280;5558;42.702;23.178;2022-08-11T06:29:17;93847.56;;;33.59;35.82
11011;BME280;5558;42.702;23.178;2022-08-11T06:31:52;93848.34;;;34.48;34.60
11011;BME280;5558;42.702;23.178;2022-08-11T06:34:46;93853.50;;;34.39;34.76
11011;BME280;5558;42.702;23.178;2022-08-11T06:37:21;93846.75;;;34.47;34.90
11011;BME280;5558;42.702;23.178;2022-08-11T06:40:03;93851.22;;;33.46;36.05
11011;BME280;5558;42.702;23.178;2022-08-11T06:42:42;93853.22;;;32.62;36.14
11011;BME280;5558;42.702;23.178;2022-08-11T06:45:27;93850.53;;;32.38;36.54
11011;BME280;5558;42.702;23.178;2022-08-11T06:47:59;93848.31;;;31.87;38.01
11011;BME280;5558;42.702;23.178;2022-08-11T06:50:28;93844.75;;;31.30;40.09
11011;BME280;5558;42.702;23.178;2022-08-11T06:53:15;93857.19;;;30.92;40.99
11011;BME280;5558;42.702;23.178;2022-08-11T06:55:45;93857.81;;;28.99;44.12
11011;BME280;5558;42.702;23.178;2022-08-11T06:58:32;93849.09;;;28.49;46.54
11011;BME280;5558;42.702;23.178;2022-08-11T07:01:26;93859.25;;;27.71;48.36
11011;BME280;5558;42.702;23.178;2022-08-11T07:04:04;93852.09;;;27.59;49.40
11011;BME280;5558;42.702;23.178;2022-08-11T07:06:57;93856.94;;;27.01;50.03
11011;BME280;5558;42.702;23.178;2022-08-11T07:10:24;93858.94;;;27.76;48.73
11011;BME280;5558;42.702;23.178;2022-08-11T07:23:17;93868.25;;;27.97;45.78
11011;BME280;5558;42.702;23.178;2022-08-11T07:26:10;93862.19;;;29.07;44.41
11011;BME280;5558;42.702;23.178;2022-08-11T07:28:56;93857.59;;;30.16;42.44
11011;BME280;5558;42.702;23.178;2022-08-11T07:31:31;93861.34;;;30.62;42.59
11011;BME280;5558;42.702;23.178;2022-08-11T07:34:08;93857.63;;;31.23;39.27
11011;BME280;5558;42.702;23.178;2022-08-11T07:36:39;93861.94;;;31.20;39.31
11011;BME280;5558;42.702;23.178;2022-08-11T07:39:14;93848.91;;;30.68;41.21
11011;BME280;5558;42.702;23.178;2022-08-11T07:41:43;93853.88;;;30.45;41.29
11011;BME280;5558;42.702;23.178;2022-08-11T07:44:13;93849.22;;;29.84;42.44
11011;BME280;5558;42.702;23.178;2022-08-11T07:46:44;93855.19;;;30.00;43.07
11011;BME280;5558;42.702;23.178;2022-08-11T07:49:33;93851.41;;;30.22;42.02
11011;BME280;5558;42.702;23.178;2022-08-11T07:52:19;93846.81;;;30.37;41.03
11011;BME280;5558;42.702;23.178;2022-08-11T07:54:54;93848.16;;;30.03;41.25
11011;BME280;5558;42.702;23.178;2022-08-11T07:57:22;93853.31;;;31.11;40.52
11011;BME280;5558;42.702;23.178;2022-08-11T08:00:07;93855.34;;;31.46;38.42
11011;BME280;5558;42.702;23.178;2022-08-11T08:02:53;93850.66;;;31.57;37.05
11011;BME280;5558;42.702;23.178;2022-08-11T08:05:38;93851.44;;;31.61;37.99
11011;BME280;5558;42.702;23.178;2022-08-11T08:08:23;93857.25;;;31.24;39.84
11011;BME280;5558;42.702;23.178;2022-08-11T08:11:10;93842.94;;;30.45;40.08
11011;BME280;5558;42.702;23.178;2022-08-11T08:13:55;93853.19;;;29.43;42.14
11011;BME280;5558;42.702;23.178;2022-08-11T08:16:41;93838.53;;;28.77;44.16
11011;BME280;5558;42.702;23.178;2022-08-11T08:19:26;93839.59;;;28.07;46.07
11011;BME280;5558;42.702;23.178;2022-08-11T08:21:54;93839.44;;;27.96;45.80
11011;BME280;5558;42.702;23.178;2022-08-11T08:24:21;93843.38;;;27.73;46.19
11011;BME280;5558;42.702;23.178;2022-08-11T08:26:50;93836.38;;;27.72;46.19
11011;BME280;5558;42.702;23.178;2022-08-11T08:29:30;93827.72;;;27.66;48.22
11011;BME280;5558;42.702;23.178;2022-08-11T08:32:27;93832.91;;;27.75;47.15
11011;BME280;5558;42.702;23.178;2022-08-11T08:34:55;93833.31;;;26.83;50.08
11011;BME280;5558;42.702;23.178;2022-08-11T08:37:25;93840.28;;;26.61;49.49
11011;BME280;5558;42.702;23.178;2022-08-11T08:39:53;93831.81;;;26.24;49.30
11011;BME280;5558;42.702;23.178;2022-08-11T08:42:24;93834.84;;;25.69;51.04
11011;BME280;5558;42.702;23.178;2022-08-11T08:44:58;93825.53;;;25.51;51.85
11011;BME280;5558;42.702;23.178;2022-08-11T08:47:30;93834.72;;;25.31;53.40
11011;BME280;5558;42.702;23.178;2022-08-11T08:50:05;93829.94;;;25.75;51.15
11011;BME280;5558;42.702;23.178;2022-08-11T08:52:36;93832.78;;;25.97;49.49
11011;BME280;5558;42.702;23.178;2022-08-11T08:55:06;93824.53;;;26.09;48.68
11011;BME280;5558;42.702;23.178;2022-08-11T08:57:37;93815.97;;;26.07;49.07
11011;BME280;5558;42.702;23.178;2022-08-11T09:00:06;93818.09;;;26.17;49.43
11011;BME280;5558;42.702;23.178;2022-08-11T09:02:33;93817.81;;;26.22;48.36
11011;BME280;5558;42.702;23.178;2022-08-11T09:05:02;93815.78;;;26.00;48.19
11011;BME280;5558;42.702;23.178;2022-08-11T09:07:30;93820.22;;;25.89;49.67
11011;BME280;5558;42.702;23.178;2022-08-11T09:09:59;93828.28;;;26.05;49.77
11011;BME280;5558;42.702;23.178;2022-08-11T09:12:27;93817.84;;;25.53;50.93
11011;BME280;5558;42.702;23.178;2022-08-11T09:14:57;93817.41;;;25.51;50.42
11011;BME280;5558;42.702;23.178;2022-08-11T09:17:37;93807.38;;;25.52;50.46
11011;BME280;5558;42.702;23.178;2022-08-11T09:20:07;93813.25;;;25.22;52.59
11011;BME280;5558;42.702;23.178;2022-08-11T09:22:37;93809.16;;;25.13;53.98
11011;BME280;5558;42.702;23.178;2022-08-11T09:25:26;93806.94;;;25.18;53.98
11011;BME280;5558;42.702;23.178;2022-08-11T09:28:12;93809.06;;;25.09;54.06
11011;BME280;5558;42.702;23.178;2022-08-11T09:30:42;93812.88;;;25.08;54.80
11011;BME280;5558;42.702;23.178;2022-08-11T09:33:14;93816.84;;;25.11;54.67
11011;BME280;5558;42.702;23.178;2022-08-11T09:35:41;93803.09;;;25.19;55.70
11011;BME280;5558;42.702;23.178;2022-08-11T09:38:12;93778.09;;;25.42;53.59
11011;BME280;5558;42.702;23.178;2022-08-11T09:40:57;93802.66;;;25.49;51.24
11011;BME280;5558;42.702;23.178;2022-08-11T09:43:27;93800.94;;;25.25;50.16
11011;BME280;5558;42.702;23.178;2022-08-11T09:46:13;93795.69;;;24.85;51.64
11011;BME280;5558;42.702;23.178;2022-08-11T09:48:42;93800.75;;;25.02;53.15
11011;BME280;5558;42.702;23.178;2022-08-11T09:51:11;93786.41;;;25.02;53.71
11011;BME280;5558;42.702;23.178;2022-08-11T09:53:40;93788.09;;;24.75;54.76
11011;BME280;5558;42.702;23.178;2022-08-11T09:56:11;93782.06;;;24.82;54.35
11011;BME280;5558;42.702;23.178;2022-08-11T09:59:05;93788.81;;;24.72;54.34
11011;BME280;5558;42.702;23.178;2022-08-11T10:01:46;93781.59;;;24.49;56.25
11011;BME280;5558;42.702;23.178;2022-08-11T10:04:14;93777.69;;;24.19;57.29
11011;BME280;5558;42.702;23.178;2022-08-11T10:06:43;93780.31;;;24.31;56.00
11011;BME280;5558;42.702;23.178;2022-08-11T10:09:32;93788.09;;;24.32;54.79
11011;BME280;5558;42.702;23.178;2022-08-11T10:12:05;93776.25;;;24.68;55.36
11011;BME280;5558;42.702;23.178;2022-08-11T10:14:33;93783.97;;;24.81;53.33
11011;BME280;5558;42.702;23.178;2022-08-11T10:17:22;93780.09;;;25.13;53.23
11011;BME280;5558;42.702;23.178;2022-08-11T10:19:49;93779.16;;;25.21;53.14
11011;BME280;5558;42.702;23.178;2022-08-11T10:22:18;93774.50;;;24.60;54.64
11011;BME280;5558;42.702;23.178;2022-08-11T10:25:03;93777.75;;;24.50;56.54
11011;BME280;5558;42.702;23.178;2022-08-11T10:27:48;93782.94;;;24.70;54.63
11011;BME280;5558;42.702;23.178;2022-08-11T10:30:24;93773.41;;;24.76;53.14
11011;BME280;5558;42.702;23.178;2022-08-11T10:33:11;93783.88;;;24.93;53.35
11011;BME280;5558;42.702;23.178;2022-08-11T10:35:56;93780.47;;;24.96;53.54
11011;BME280;5558;42.702;23.178;2022-08-11T10:38:24;93781.00;;;25.02;51.15
11011;BME280;5558;42.702;23.178;2022-08-11T10:40:52;93788.00;;;25.03;50.58
11011;BME280;5558;42.702;23.178;2022-08-11T10:43:36;93777.44;;;24.82;51.43
11011;BME280;5558;42.702;23.178;2022-08-11T10:46:06;93768.00;;;25.07;51.27
11011;BME280;5558;42.702;23.178;2022-08-11T10:48:54;93767.81;;;24.85;52.26
11011;BME280;5558;42.702;23.178;2022-08-11T10:51:22;93758.94;;;24.84;51.21
11011;BME280;5558;42.702;23.178;2022-08-11T10:54:07;93766.78;;;24.74;51.77
11011;BME280;5558;42.702;23.178;2022-08-11T10:56:53;93759.06;;;24.91;51.57
11011;BME280;5558;42.702;23.178;2022-08-11T10:59:38;93747.97;;;25.12;50.20
11011;BME280;5558;42.702;23.178;2022-08-11T11:02:14;93750.47;;;25.20;50.55
11011;BME280;5558;42.702;23.178;2022-08-11T11:04:57;93760.75;;;25.46;50.89
11011;BME280;5558;42.702;23.178;2022-08-11T11:07:35;93749.56;;;25.32;49.63
11011;BME280;5558;42.702;23.178;2022-08-11T11:10:05;93749.00;;;25.23;49.06
11011;BME280;5558;42.702;23.178;2022-08-11T11:12:38;93740.88;;;25.39;50.40
11011;BME280;5558;42.702;23.178;2022-08-11T11:15:23;93744.66;;;25.53;49.60
11011;BME280;5558;42.702;23.178;2022-08-11T11:18:12;93743.38;;;25.66;49.01
11011;BME280;5558;42.702;23.178;2022-08-11T11:20:44;93737.75;;;25.75;48.72
11011;BME280;5558;42.702;23.178;2022-08-11T11:23:17;93736.38;;;25.46;48.20
11011;BME280;5558;42.702;23.178;2022-08-11T11:25:55;93742.06;;;25.25;47.56
11011;BME280;5558;42.702;23.178;2022-08-11T11:28:54;93743.13;;;25.37;46.79
11011;BME280;5558;42.702;23.178;2022-08-11T11:31:33;93736.09;;;25.51;48.19
11011;BME280;5558;42.702;23.178;2022-08-11T11:34:14;93739.31;;;25.57;47.40
11011;BME280;5558;42.702;23.178;2022-08-11T11:36:48;93724.38;;;25.47;46.37
11011;BME280;5558;42.702;23.178;2022-08-11T11:39:18;93736.69;;;25.60;46.15
11011;BME280;5558;42.702;23.178;2022-08-11T11:41:47;93739.44;;;25.83;45.79
11011;BME280;5558;42.702;23.178;2022-08-11T11:44:15;93735.97;;;25.63;45.63
11011;BME280;5558;42.702;23.178;2022-08-11T11:46:43;93744.16;;;25.67;45.39
11011;BME280;5558;42.702;23.178;2022-08-11T11:49:12;93736.66;;;25.79;44.54
11011;BME280;5558;42.702;23.178;2022-08-11T11:51:40;93733.53;;;25.77;44.77
11011;BME280;5558;42.702;23.178;2022-08-11T11:54:10;93716.63;;;25.65;44.72
11011;BME280;5558;42.702;23.178;2022-08-11T11:56:40;93730.22;;;26.03;45.57
11011;BME280;5558;42.702;23.178;2022-08-11T11:59:09;93726.25;;;26.00;44.62
11011;BME280;5558;42.702;23.178;2022-08-11T12:01:55;93727.19;;;25.89;44.33
11011;BME280;5558;42.702;23.178;2022-08-11T12:04:22;93719.97;;;26.15;43.58
11011;BME280;5558;42.702;23.178;2022-08-11T12:06:49;93733.41;;;26.08;43.50
11011;BME280;5558;42.702;23.178;2022-08-11T12:09:38;93731.19;;;26.14;44.10
11011;BME280;5558;42.702;23.178;2022-08-11T12:12:07;93726.13;;;26.12;42.21
11011;BME280;5558;42.702;23.178;2022-08-11T12:14:52;93714.69;;;26.03;42.06
11011;BME280;5558;42.702;23.178;2022-08-11T12:17:20;93710.03;;;25.85;41.34
11011;BME280;5558;42.702;23.178;2022-08-11T12:19:47;93703.13;;;25.68;42.78
11011;BME280;5558;42.702;23.178;2022-08-11T12:22:15;93709.97;;;25.81;42.84
11011;BME280;5558;42.702;23.178;2022-08-11T12:28:23;93712.47;;;26.28;41.62
11011;BME280;5558;42.702;23.178;2022-08-11T12:30:52;93705.81;;;26.25;41.70
11011;BME280;5558;42.702;23.178;2022-08-11T12:33:20;93706.97;;;26.24;42.27
11011;BME280;5558;42.702;23.178;2022-08-11T12:35:55;93700.00;;;26.27;41.94
11011;BME280;5558;42.702;23.178;2022-08-11T12:38:24;93702.50;;;26.35;42.09
11011;BME280;5558;42.702;23.178;2022-08-11T12:40:52;93687.88;;;26.43;41.19
11011;BME280;5558;42.702;23.178;2022-08-11T12:43:41;93693.28;;;26.85;42.07
11011;BME280;5558;42.702;23.178;2022-08-11T12:46:30;93692.72;;;26.76;40.85
11011;BME280;5558;42.702;23.178;2022-08-11T12:49:00;93693.34;;;26.89;43.56
11011;BME280;5558;42.702;23.178;2022-08-11T12:51:50;93697.38;;;26.30;45.12
11011;BME280;5558;42.702;23.178;2022-08-11T12:54:27;93690.50;;;26.36;44.44
11011;BME280;5558;42.702;23.178;2022-08-11T12:56:59;93697.53;;;26.18;46.61
11011;BME280;5558;42.702;23.178;2022-08-11T12:59:45;93700.91;;;26.12;48.30
11011;BME280;5558;42.702;23.178;2022-08-11T13:02:31;93695.94;;;25.76;50.71
11011;BME280;5558;42.702;23.178;2022-08-11T13:05:18;93687.94;;;25.64;52.96
11011;BME280;5558;42.702;23.178;2022-08-11T13:07:46;93701.56;;;25.67;51.53
11011;BME280;5558;42.702;23.178;2022-08-11T13:10:16;93697.50;;;25.39;51.88
11011;BME280;5558;42.702;23.178;2022-08-11T13:13:06;93694.53;;;25.28;51.38
11011;BME280;5558;42.702;23.178;2022-08-11T13:15:34;93706.09;;;25.25;50.92
11011;BME280;5558;42.702;23.178;2022-08-11T13:18:02;93697.16;;;25.24;50.92
11011;BME280;5558;42.702;23.178;2022-08-11T13:20:32;93699.22;;;25.31;51.74
11011;BME280;5558;42.702;23.178;2022-08-11T13:23:00;93698.41;;;25.46;51.67
11011;BME280;5558;42.702;23.178;2022-08-11T13:25:30;93692.31;;;24.99;52.37
11011;BME280;5558;42.702;23.178;2022-08-11T13:27:59;93691.78;;;25.09;53.42
11011;BME280;5558;42.702;23.178;2022-08-11T13:30:28;93690.50;;;25.22;54.05
11011;BME280;5558;42.702;23.178;2022-08-11T13:33:15;93694.84;;;25.07;52.33
11011;BME280;5558;42.702;23.178;2022-08-11T13:35:44;93694.69;;;25.00;53.51
11011;BME280;5558;42.702;23.178;2022-08-11T13:38:15;93685.84;;;25.03;52.36
11011;BME280;5558;42.702;23.178;2022-08-11T13:40:42;93674.19;;;24.84;52.73
11011;BME280;5558;42.702;23.178;2022-08-11T13:43:12;93670.25;;;24.66;52.62
11011;BME280;5558;42.702;23.178;2022-08-11T13:45:40;93676.00;;;24.80;51.22
11011;BME280;5558;42.702;23.178;2022-08-11T13:48:08;93677.91;;;24.95;51.74
11011;BME280;5558;42.702;23.178;2022-08-11T13:50:37;93665.78;;;24.89;50.77
11011;BME280;5558;42.702;23.178;2022-08-11T13:53:23;93659.81;;;24.99;50.40
11011;BME280;5558;42.702;23.178;2022-08-11T13:55:50;93670.63;;;25.14;50.38
11011;BME280;5558;42.702;23.178;2022-08-11T13:58:18;93662.84;;;25.13;50.03
11011;BME280;5558;42.702;23.178;2022-08-11T14:00:49;93662.97;;;25.20;50.25
11011;BME280;5558;42.702;23.178;2022-08-11T14:03:19;93668.16;;;25.25;50.46
11011;BME280;5558;42.702;23.178;2022-08-11T14:05:50;93665.91;;;25.30;48.70
11011;BME280;5558;42.702;23.178;2022-08-11T14:08:20;93659.38;;;25.32;48.37
11011;BME280;5558;42.702;23.178;2022-08-11T14:10:50;93666.59;;;25.43;47.57
11011;BME280;5558;42.702;23.178;2022-08-11T14:13:39;93669.03;;;25.48;47.44
11011;BME280;5558;42.702;23.178;2022-08-11T14:16:10;93674.66;;;25.40;48.09
11011;BME280;5558;42.702;23.178;2022-08-11T14:18:42;93667.03;;;25.45;47.38
11011;BME280;5558;42.702;23.178;2022-08-11T14:21:13;93662.44;;;25.30;48.00
11011;BME280;5558;42.702;23.178;2022-08-11T14:24:09;93652.38;;;25.30;47.24
11011;BME280;5558;42.702;23.178;2022-08-11T14:26:37;93673.31;;;25.49;47.41
11011;BME280;5558;42.702;23.178;2022-08-11T14:29:10;93675.09;;;25.61;47.27
11011;BME280;5558;42.702;23.178;2022-08-11T14:31:42;93664.03;;;25.50;46.66
11011;BME280;5558;42.702;23.178;2022-08-11T14:34:10;93673.38;;;25.53;46.83
11011;BME280;5558;42.702;23.178;2022-08-11T14:36:43;93668.03;;;25.56;47.18
11011;BME280;5558;42.702;23.178;2022-08-11T14:39:14;93661.22;;;25.66;46.68
11011;BME280;5558;42.702;23.178;2022-08-11T14:41:45;93670.88;;;25.63;46.15
11011;BME280;5558;42.702;23.178;2022-08-11T14:44:33;93665.75;;;25.58;46.20
11011;BME280;5558;42.702;23.178;2022-08-11T14:47:18;93662.75;;;25.44;47.35
11011;BME280;5558;42.702;23.178;2022-08-11T14:49:46;93662.09;;;25.51;48.33